createdAt,value
2017-12-27T00:00:42.928Z,20.80
2017-12-27T00:01:47.909Z,20.80
2017-12-27T00:02:53.366Z,20.80
2017-12-27T00:03:59.009Z,20.80
2017-12-27T00:05:03.848Z,20.80
2017-12-27T00:06:08.953Z,20.80
2017-12-27T00:07:13.885Z,20.80
2017-12-27T00:08:18.784Z,20.80
2017-12-27T00:09:23.897Z,20.80
2017-12-27T00:10:28.805Z,20.80
2017-12-27T00:11:33.766Z,20.80
2017-12-27T00:12:38.825Z,20.80
2017-12-27T00:13:43.809Z,20.80
2017-12-27T00:14:48.713Z,20.80
2017-12-27T00:15:53.528Z,20.80
2017-12-27T00:16:58.995Z,20.80
2017-12-27T00:18:03.937Z,20.80
2017-12-27T00:19:08.865Z,20.80
2017-12-27T00:20:13.715Z,20.80
2017-12-27T00:21:18.654Z,20.80
2017-12-27T00:22:24.197Z,20.80
2017-12-27T00:23:28.978Z,20.80
2017-12-27T00:24:50.006Z,20.80
2017-12-27T00:25:54.963Z,20.80
2017-12-27T00:26:59.719Z,20.80
2017-12-27T00:28:04.520Z,20.80
2017-12-27T00:29:09.332Z,20.80
2017-12-27T00:30:14.132Z,20.80
2017-12-27T00:31:19.093Z,20.80
2017-12-27T00:32:24.023Z,20.80
2017-12-27T00:33:28.840Z,20.80
2017-12-27T00:34:33.787Z,20.80
2017-12-27T00:35:38.849Z,20.80
2017-12-27T00:36:44.185Z,20.80
2017-12-27T00:37:48.954Z,20.80
2017-12-27T00:38:53.930Z,20.80
2017-12-27T00:39:58.681Z,20.80
2017-12-27T00:41:03.698Z,20.80
2017-12-27T00:42:08.513Z,20.80
2017-12-27T00:43:13.335Z,20.80
2017-12-27T00:44:18.242Z,20.80
2017-12-27T00:45:23.066Z,20.80
2017-12-27T00:46:28.056Z,20.80
2017-12-27T00:47:32.958Z,20.80
2017-12-27T00:48:37.885Z,20.80
2017-12-27T00:49:42.691Z,20.80
2017-12-27T00:50:47.453Z,20.80
2017-12-27T00:51:52.425Z,20.80
2017-12-27T00:52:57.289Z,20.80
2017-12-27T00:54:02.317Z,20.80
2017-12-27T00:55:08.007Z,20.80
2017-12-27T00:56:12.799Z,20.70
2017-12-27T00:57:17.786Z,20.80
2017-12-27T00:58:22.743Z,20.70
2017-12-27T00:59:27.554Z,20.80
2017-12-27T01:00:32.581Z,20.80
2017-12-27T01:01:37.413Z,20.80
2017-12-27T01:02:42.213Z,20.80
2017-12-27T01:03:46.977Z,20.80
2017-12-27T01:04:51.743Z,20.80
2017-12-27T01:05:56.679Z,20.80
2017-12-27T01:07:01.476Z,20.80
2017-12-27T01:08:06.521Z,20.80
2017-12-27T01:09:11.378Z,20.80
2017-12-27T01:10:16.898Z,20.70
2017-12-27T01:11:21.890Z,20.80
2017-12-27T01:12:26.631Z,20.80
2017-12-27T01:13:32.086Z,20.80
2017-12-27T01:14:36.828Z,20.80
2017-12-27T01:15:41.573Z,20.80
2017-12-27T01:16:46.307Z,20.80
2017-12-27T01:17:51.257Z,20.80
2017-12-27T01:18:56.004Z,20.70
2017-12-27T01:20:00.950Z,20.70
2017-12-27T01:21:05.672Z,20.70
2017-12-27T01:22:10.507Z,20.70
2017-12-27T01:23:15.342Z,20.70
2017-12-27T01:24:20.205Z,20.70
2017-12-27T01:25:25.139Z,20.70
2017-12-27T01:26:30.197Z,20.70
2017-12-27T01:27:35.633Z,20.70
2017-12-27T01:28:41.362Z,20.80
2017-12-27T01:29:46.860Z,20.70
2017-12-27T01:30:52.263Z,20.80
2017-12-27T01:31:58.274Z,20.80
2017-12-27T01:33:03.454Z,20.80
2017-12-27T01:34:08.680Z,20.80
2017-12-27T01:35:13.634Z,20.80
2017-12-27T01:36:18.466Z,20.80
2017-12-27T01:37:23.285Z,20.70
2017-12-27T01:38:28.310Z,20.70
2017-12-27T01:39:33.230Z,20.80
2017-12-27T01:40:38.062Z,20.80
2017-12-27T01:41:43.062Z,20.80
2017-12-27T01:42:48.108Z,20.70
2017-12-27T01:43:53.084Z,20.70
2017-12-27T01:44:58.081Z,20.70
2017-12-27T01:46:02.881Z,20.70
2017-12-27T01:47:07.853Z,20.70
2017-12-27T01:48:12.904Z,20.70
2017-12-27T01:49:17.676Z,20.70
2017-12-27T01:50:22.762Z,20.70
2017-12-27T01:51:27.579Z,20.70
2017-12-27T01:52:32.340Z,20.70
2017-12-27T01:53:37.031Z,20.70
2017-12-27T01:54:42.023Z,20.70
2017-12-27T01:55:46.793Z,20.70
2017-12-27T01:56:51.633Z,20.70
2017-12-27T01:57:56.576Z,20.70
2017-12-27T01:59:01.417Z,20.70
2017-12-27T02:00:06.230Z,20.70
2017-12-27T02:01:11.035Z,20.70
2017-12-27T02:02:16.051Z,20.70
2017-12-27T02:03:20.875Z,20.70
2017-12-27T02:04:25.894Z,20.70
2017-12-27T02:05:30.881Z,20.70
2017-12-27T02:06:35.653Z,20.70
2017-12-27T02:07:40.368Z,20.70
2017-12-27T02:08:45.440Z,20.70
2017-12-27T02:09:50.447Z,20.70
2017-12-27T02:10:55.194Z,20.70
2017-12-27T02:12:00.219Z,20.70
2017-12-27T02:13:05.173Z,20.70
2017-12-27T02:14:09.960Z,20.70
2017-12-27T02:15:14.780Z,20.70
2017-12-27T02:16:19.816Z,20.70
2017-12-27T02:17:25.394Z,20.70
2017-12-27T02:18:30.133Z,20.70
2017-12-27T02:19:35.113Z,20.70
2017-12-27T02:20:40.052Z,20.70
2017-12-27T02:21:44.850Z,20.70
2017-12-27T02:22:49.759Z,20.70
2017-12-27T02:23:54.717Z,20.70
2017-12-27T02:24:59.514Z,20.70
2017-12-27T02:26:04.272Z,20.70
2017-12-27T02:27:09.204Z,20.70
2017-12-27T02:28:14.077Z,20.70
2017-12-27T02:29:18.958Z,20.70
2017-12-27T02:30:23.741Z,20.70
2017-12-27T02:31:28.666Z,20.70
2017-12-27T02:32:33.568Z,20.70
2017-12-27T02:33:38.319Z,20.70
2017-12-27T02:34:43.020Z,20.70
2017-12-27T02:35:47.748Z,20.70
2017-12-27T02:36:52.485Z,20.70
2017-12-27T02:37:57.409Z,20.70
2017-12-27T02:39:02.364Z,20.70
2017-12-27T02:40:07.358Z,20.70
2017-12-27T02:41:12.054Z,20.70
2017-12-27T02:42:16.805Z,20.70
2017-12-27T02:43:21.664Z,20.70
2017-12-27T02:44:26.618Z,20.70
2017-12-27T02:45:32.482Z,20.70
2017-12-27T02:46:37.424Z,20.70
2017-12-27T02:47:42.129Z,20.70
2017-12-27T02:48:46.914Z,20.70
2017-12-27T02:49:51.815Z,20.70
2017-12-27T02:50:56.552Z,20.70
2017-12-27T02:52:01.469Z,20.70
2017-12-27T02:53:06.418Z,20.70
2017-12-27T02:54:11.719Z,20.70
2017-12-27T02:55:16.613Z,20.70
2017-12-27T02:56:21.366Z,20.70
2017-12-27T02:57:26.192Z,20.70
2017-12-27T02:58:31.113Z,20.70
2017-12-27T02:59:35.949Z,20.70
2017-12-27T03:00:40.954Z,20.70
2017-12-27T03:01:45.690Z,20.70
2017-12-27T03:02:50.777Z,20.60
2017-12-27T03:03:56.095Z,20.70
2017-12-27T03:05:01.257Z,20.70
2017-12-27T03:06:06.023Z,20.70
2017-12-27T03:07:10.862Z,20.70
2017-12-27T03:08:15.660Z,20.70
2017-12-27T03:09:20.687Z,20.70
2017-12-27T03:10:25.743Z,20.70
2017-12-27T03:11:30.572Z,20.70
2017-12-27T03:12:35.478Z,20.70
2017-12-27T03:13:40.417Z,20.70
2017-12-27T03:14:45.402Z,20.70
2017-12-27T03:15:50.364Z,20.70
2017-12-27T03:16:55.198Z,20.70
2017-12-27T03:18:00.174Z,20.70
2017-12-27T03:19:05.338Z,20.70
2017-12-27T03:20:10.194Z,20.70
2017-12-27T03:21:15.066Z,20.70
2017-12-27T03:22:20.541Z,20.70
2017-12-27T03:23:25.519Z,20.70
2017-12-27T03:24:30.323Z,20.60
2017-12-27T03:25:35.132Z,20.70
2017-12-27T03:26:39.977Z,20.70
2017-12-27T03:27:44.753Z,20.70
2017-12-27T03:28:49.695Z,20.60
2017-12-27T03:29:54.676Z,20.70
2017-12-27T03:30:59.420Z,20.70
2017-12-27T03:32:04.318Z,20.70
2017-12-27T03:33:09.082Z,20.70
2017-12-27T03:34:14.042Z,20.60
2017-12-27T03:35:18.984Z,20.70
2017-12-27T03:36:23.956Z,20.60
2017-12-27T03:37:28.756Z,20.60
2017-12-27T03:38:33.691Z,20.60
2017-12-27T03:39:38.661Z,20.60
2017-12-27T03:40:43.976Z,20.60
2017-12-27T03:41:48.915Z,20.60
2017-12-27T03:42:53.797Z,20.60
2017-12-27T03:43:58.599Z,20.60
2017-12-27T03:45:03.617Z,20.60
2017-12-27T03:46:08.555Z,20.60
2017-12-27T03:47:13.596Z,20.60
2017-12-27T03:48:18.639Z,20.60
2017-12-27T03:49:23.371Z,20.60
2017-12-27T03:50:28.388Z,20.60
2017-12-27T03:51:33.183Z,20.60
2017-12-27T03:52:38.219Z,20.60
2017-12-27T03:53:43.148Z,20.60
2017-12-27T03:54:47.934Z,20.60
2017-12-27T03:55:52.944Z,20.60
2017-12-27T03:56:57.817Z,20.60
2017-12-27T03:58:02.655Z,20.60
2017-12-27T03:59:08.118Z,20.60
2017-12-27T04:00:12.909Z,20.60
2017-12-27T04:01:17.926Z,20.60
2017-12-27T04:02:22.830Z,20.60
2017-12-27T04:03:27.773Z,20.60
2017-12-27T04:04:32.638Z,20.60
2017-12-27T04:05:37.575Z,20.60
2017-12-27T04:06:42.501Z,20.60
2017-12-27T04:07:47.378Z,20.60
2017-12-27T04:08:52.177Z,20.60
2017-12-27T04:09:57.132Z,20.60
2017-12-27T04:11:02.115Z,20.60
2017-12-27T04:12:06.843Z,20.60
2017-12-27T04:13:11.808Z,20.60
2017-12-27T04:14:16.527Z,20.60
2017-12-27T04:15:21.467Z,20.60
2017-12-27T04:16:26.490Z,20.60
2017-12-27T04:17:32.013Z,20.60
2017-12-27T04:18:36.917Z,20.60
2017-12-27T04:19:41.860Z,20.60
2017-12-27T04:20:46.811Z,20.60
2017-12-27T04:21:51.810Z,20.60
2017-12-27T04:22:56.696Z,20.60
2017-12-27T04:24:01.474Z,20.60
2017-12-27T04:25:06.409Z,20.60
2017-12-27T04:26:11.077Z,20.60
2017-12-27T04:27:15.993Z,20.60
2017-12-27T04:28:20.909Z,20.60
2017-12-27T04:29:25.696Z,20.60
2017-12-27T04:30:30.442Z,20.60
2017-12-27T04:31:35.321Z,20.60
2017-12-27T04:32:40.373Z,20.60
2017-12-27T04:33:45.194Z,20.60
2017-12-27T04:34:49.966Z,20.60
2017-12-27T04:35:55.523Z,20.60
2017-12-27T04:37:00.651Z,20.60
2017-12-27T04:38:05.422Z,20.60
2017-12-27T04:39:10.155Z,20.60
2017-12-27T04:40:14.947Z,20.60
2017-12-27T04:41:19.915Z,20.60
2017-12-27T04:42:24.704Z,20.60
2017-12-27T04:43:29.657Z,20.60
2017-12-27T04:44:34.397Z,20.60
2017-12-27T04:45:39.349Z,20.60
2017-12-27T04:46:44.278Z,20.60
2017-12-27T04:47:49.230Z,20.60
2017-12-27T04:48:54.058Z,20.60
2017-12-27T04:49:58.978Z,20.60
2017-12-27T04:51:03.787Z,20.60
2017-12-27T04:52:08.605Z,20.60
2017-12-27T04:53:13.424Z,20.60
2017-12-27T04:54:19.402Z,20.60
2017-12-27T04:55:24.217Z,20.60
2017-12-27T04:56:29.157Z,20.60
2017-12-27T04:57:34.109Z,20.60
2017-12-27T04:58:39.159Z,20.60
2017-12-27T04:59:43.918Z,20.60
2017-12-27T05:00:48.920Z,20.60
2017-12-27T05:01:53.620Z,20.60
2017-12-27T05:02:58.433Z,20.60
2017-12-27T05:04:03.444Z,20.60
2017-12-27T05:05:08.205Z,20.60
2017-12-27T05:06:13.005Z,20.50
2017-12-27T05:07:17.861Z,20.60
2017-12-27T05:08:22.658Z,20.60
2017-12-27T05:09:27.487Z,20.60
2017-12-27T05:10:32.871Z,20.60
2017-12-27T05:11:37.852Z,20.60
2017-12-27T05:12:43.628Z,20.60
2017-12-27T05:13:48.596Z,20.60
2017-12-27T05:14:53.309Z,20.60
2017-12-27T05:15:58.112Z,20.60
2017-12-27T05:17:02.832Z,20.60
2017-12-27T05:18:07.752Z,20.60
2017-12-27T05:19:12.695Z,20.60
2017-12-27T05:20:17.616Z,20.60
2017-12-27T05:21:22.517Z,20.60
2017-12-27T05:22:28.468Z,20.60
2017-12-27T05:23:33.229Z,20.60
2017-12-27T05:24:37.915Z,20.60
2017-12-27T05:25:42.861Z,20.60
2017-12-27T05:26:47.817Z,20.60
2017-12-27T05:27:52.595Z,20.60
2017-12-27T05:28:57.556Z,20.60
2017-12-27T05:30:02.597Z,20.60
2017-12-27T05:31:07.992Z,20.60
2017-12-27T05:32:12.744Z,20.60
2017-12-27T05:33:17.550Z,20.60
2017-12-27T05:34:22.343Z,20.60
2017-12-27T05:35:27.291Z,20.60
2017-12-27T05:36:32.099Z,20.60
2017-12-27T05:37:36.949Z,20.60
2017-12-27T05:38:41.819Z,20.60
2017-12-27T05:39:46.662Z,20.60
2017-12-27T05:40:51.669Z,20.60
2017-12-27T05:41:56.596Z,20.60
2017-12-27T05:43:01.581Z,20.60
2017-12-27T05:44:06.408Z,20.60
2017-12-27T05:45:11.227Z,20.60
2017-12-27T05:46:16.004Z,20.50
2017-12-27T05:47:20.925Z,20.60
2017-12-27T05:48:25.888Z,20.60
2017-12-27T05:49:30.678Z,20.60
2017-12-27T05:50:35.441Z,20.60
2017-12-27T05:51:40.419Z,20.50
2017-12-27T05:52:45.166Z,20.60
2017-12-27T05:53:50.013Z,20.50
2017-12-27T05:54:55.112Z,20.60
2017-12-27T05:56:00.053Z,20.50
2017-12-27T05:57:05.054Z,20.50
2017-12-27T05:58:10.071Z,20.60
2017-12-27T05:59:15.040Z,20.50
2017-12-27T06:00:20.029Z,20.50
2017-12-27T06:01:25.603Z,20.50
2017-12-27T06:02:30.425Z,20.50
2017-12-27T06:03:35.296Z,20.50
2017-12-27T06:04:40.302Z,20.50
2017-12-27T06:05:45.080Z,20.50
2017-12-27T06:06:50.056Z,20.50
2017-12-27T06:07:55.017Z,20.50
2017-12-27T06:08:59.802Z,20.50
2017-12-27T06:10:04.653Z,20.50
2017-12-27T06:11:09.650Z,20.50
2017-12-27T06:12:14.616Z,20.50
2017-12-27T06:13:19.448Z,20.50
2017-12-27T06:14:24.478Z,20.50
2017-12-27T06:15:29.384Z,20.50
2017-12-27T06:16:34.451Z,20.50
2017-12-27T06:17:39.330Z,20.50
2017-12-27T06:18:44.207Z,20.50
2017-12-27T06:19:49.925Z,20.50
2017-12-27T06:20:54.938Z,20.50
2017-12-27T06:21:59.886Z,20.50
2017-12-27T06:23:04.731Z,20.50
2017-12-27T06:24:09.727Z,20.50
2017-12-27T06:25:14.736Z,20.50
2017-12-27T06:26:19.514Z,20.50
2017-12-27T06:27:24.441Z,20.50
2017-12-27T06:28:29.143Z,20.50
2017-12-27T06:29:33.958Z,20.50
2017-12-27T06:30:38.975Z,20.50
2017-12-27T06:31:43.786Z,20.50
2017-12-27T06:32:48.513Z,20.50
2017-12-27T06:33:53.474Z,20.50
2017-12-27T06:34:58.456Z,20.60
2017-12-27T06:36:03.438Z,20.60
2017-12-27T06:37:08.180Z,20.60
2017-12-27T06:38:13.830Z,20.60
2017-12-27T06:39:18.644Z,20.60
2017-12-27T06:40:23.383Z,20.60
2017-12-27T06:41:28.388Z,20.60
2017-12-27T06:42:33.111Z,20.60
2017-12-27T06:43:38.018Z,20.50
2017-12-27T06:44:42.764Z,20.60
2017-12-27T06:45:47.631Z,20.60
2017-12-27T06:46:52.569Z,20.60
2017-12-27T06:47:57.468Z,20.60
2017-12-27T06:49:02.474Z,20.60
2017-12-27T06:50:07.454Z,20.60
2017-12-27T06:51:12.453Z,20.60
2017-12-27T06:52:17.226Z,20.60
2017-12-27T06:53:22.210Z,20.60
2017-12-27T06:54:27.121Z,20.60
2017-12-27T06:55:32.143Z,20.60
2017-12-27T06:56:37.851Z,20.60
2017-12-27T06:57:42.901Z,20.60
2017-12-27T06:58:47.927Z,20.60
2017-12-27T06:59:53.026Z,20.60
2017-12-27T07:00:57.943Z,20.60
2017-12-27T07:02:02.968Z,20.60
2017-12-27T07:03:08.042Z,20.60
2017-12-27T07:04:13.009Z,20.60
2017-12-27T07:05:18.183Z,20.60
2017-12-27T07:06:23.919Z,20.60
2017-12-27T07:07:28.936Z,20.60
2017-12-27T07:08:33.892Z,20.60
2017-12-27T07:09:38.837Z,20.60
2017-12-27T07:10:43.791Z,20.60
2017-12-27T07:11:48.654Z,20.60
2017-12-27T07:12:53.549Z,20.60
2017-12-27T07:13:58.531Z,20.60
2017-12-27T07:15:03.457Z,20.60
2017-12-27T07:16:08.288Z,20.60
2017-12-27T07:17:13.085Z,20.60
2017-12-27T07:18:18.063Z,20.60
2017-12-27T07:19:22.871Z,20.60
2017-12-27T07:20:27.790Z,20.60
2017-12-27T07:21:32.598Z,20.60
2017-12-27T07:22:37.438Z,20.60
2017-12-27T07:23:42.438Z,20.60
2017-12-27T07:24:47.250Z,20.60
2017-12-27T07:25:52.248Z,20.60
2017-12-27T07:26:57.031Z,20.60
2017-12-27T07:28:01.896Z,20.60
2017-12-27T07:29:07.332Z,20.60
2017-12-27T07:30:12.340Z,20.60
2017-12-27T07:31:17.256Z,20.60
2017-12-27T07:32:22.271Z,20.60
2017-12-27T07:33:27.345Z,20.60
2017-12-27T07:34:32.227Z,20.60
2017-12-27T07:35:37.102Z,20.60
2017-12-27T07:36:42.087Z,20.60
2017-12-27T07:37:46.919Z,20.60
2017-12-27T07:38:51.876Z,20.60
2017-12-27T07:39:56.692Z,20.60
2017-12-27T07:41:01.495Z,20.60
2017-12-27T07:42:06.466Z,20.60
2017-12-27T07:43:12.002Z,20.60
2017-12-27T07:44:16.833Z,20.60
2017-12-27T07:45:22.035Z,20.60
2017-12-27T07:46:26.997Z,20.60
2017-12-27T07:47:32.018Z,20.60
2017-12-27T07:48:36.847Z,20.60
2017-12-27T07:49:41.635Z,20.60
2017-12-27T07:50:46.658Z,20.60
2017-12-27T07:51:51.523Z,20.70
2017-12-27T07:52:56.342Z,20.60
2017-12-27T07:54:01.616Z,20.70
2017-12-27T07:55:06.536Z,20.70
2017-12-27T07:56:11.463Z,20.70
2017-12-27T07:57:16.442Z,20.70
2017-12-27T07:58:21.453Z,20.60
2017-12-27T07:59:26.532Z,20.60
2017-12-27T08:00:31.312Z,20.70
2017-12-27T08:01:36.650Z,20.70
2017-12-27T08:02:41.655Z,20.60
2017-12-27T08:03:46.691Z,20.60
2017-12-27T08:04:51.746Z,20.60
2017-12-27T08:05:56.661Z,20.60
2017-12-27T08:07:01.599Z,20.70
2017-12-27T08:08:06.577Z,20.70
2017-12-27T08:09:11.397Z,20.60
2017-12-27T08:10:16.334Z,20.60
2017-12-27T08:11:21.389Z,20.60
2017-12-27T08:12:26.347Z,20.60
2017-12-27T08:13:31.445Z,20.60
2017-12-27T08:14:36.384Z,20.60
2017-12-27T08:15:41.432Z,20.60
2017-12-27T08:16:46.491Z,20.60
2017-12-27T08:17:51.631Z,20.70
2017-12-27T08:18:56.669Z,20.60
2017-12-27T08:20:01.548Z,20.60
2017-12-27T08:21:06.417Z,20.60
2017-12-27T08:22:11.431Z,20.60
2017-12-27T08:23:16.300Z,20.60
2017-12-27T08:24:21.251Z,20.60
2017-12-27T08:25:26.110Z,20.60
2017-12-27T08:26:31.362Z,20.50
2017-12-27T08:27:36.726Z,20.40
2017-12-27T08:28:41.800Z,20.30
2017-12-27T08:29:46.946Z,20.30
2017-12-27T08:30:51.894Z,20.20
2017-12-27T08:31:56.895Z,20.20
2017-12-27T08:33:01.806Z,20.10
2017-12-27T08:34:06.692Z,20.10
2017-12-27T08:35:11.589Z,20.10
2017-12-27T08:36:16.332Z,20.00
2017-12-27T08:37:21.287Z,20.00
2017-12-27T08:38:26.208Z,19.90
2017-12-27T08:39:31.222Z,19.80
2017-12-27T08:40:36.334Z,19.80
2017-12-27T08:41:41.404Z,19.70
2017-12-27T08:42:46.426Z,19.70
2017-12-27T08:43:51.734Z,19.60
2017-12-27T08:44:57.622Z,19.60
2017-12-27T08:46:03.177Z,19.60
2017-12-27T08:47:10.245Z,19.50
2017-12-27T08:48:15.274Z,19.50
2017-12-27T08:49:20.929Z,19.50
2017-12-27T08:50:26.491Z,19.40
2017-12-27T08:51:31.626Z,19.40
2017-12-27T08:52:36.913Z,19.40
2017-12-27T08:53:44.425Z,19.40
2017-12-27T08:54:49.770Z,19.40
2017-12-27T08:55:54.956Z,19.50
2017-12-27T08:57:00.090Z,19.50
2017-12-27T08:58:05.177Z,19.60
2017-12-27T08:59:10.348Z,19.60
2017-12-27T09:00:15.276Z,19.70
2017-12-27T09:01:20.647Z,19.70
2017-12-27T09:02:25.696Z,19.80
2017-12-27T09:03:30.609Z,19.80
2017-12-27T09:04:35.721Z,19.80
2017-12-27T09:05:42.985Z,19.90
2017-12-27T09:06:48.073Z,19.90
2017-12-27T09:07:54.089Z,19.90
2017-12-27T09:08:59.107Z,19.90
2017-12-27T09:10:04.112Z,19.90
2017-12-27T09:11:09.231Z,20.00
2017-12-27T09:12:14.316Z,20.00
2017-12-27T09:13:19.416Z,20.00
2017-12-27T09:14:24.256Z,20.00
2017-12-27T09:15:29.439Z,20.10
2017-12-27T09:16:34.467Z,20.10
2017-12-27T09:17:39.446Z,20.10
2017-12-27T09:18:44.265Z,20.10
2017-12-27T09:19:49.085Z,20.20
2017-12-27T09:20:53.856Z,20.20
2017-12-27T09:21:58.825Z,20.20
2017-12-27T09:23:04.080Z,20.20
2017-12-27T09:24:08.964Z,20.30
2017-12-27T09:25:14.531Z,20.30
2017-12-27T09:26:19.832Z,20.30
2017-12-27T09:27:24.602Z,20.30
2017-12-27T09:28:29.357Z,20.30
2017-12-27T09:29:34.175Z,20.30
2017-12-27T09:30:39.172Z,20.40
2017-12-27T09:31:43.946Z,20.40
2017-12-27T09:32:48.983Z,20.40
2017-12-27T09:33:54.493Z,20.40
2017-12-27T09:34:59.322Z,20.50
2017-12-27T09:36:04.150Z,20.50
2017-12-27T09:37:09.193Z,20.50
2017-12-27T09:38:13.930Z,20.50
2017-12-27T09:39:19.472Z,20.60
2017-12-27T09:40:24.437Z,20.60
2017-12-27T09:41:29.264Z,20.60
2017-12-27T09:42:34.343Z,20.60
2017-12-27T09:43:39.289Z,20.60
2017-12-27T09:44:44.868Z,20.50
2017-12-27T09:45:49.751Z,20.60
2017-12-27T09:46:56.753Z,20.60
2017-12-27T09:48:01.585Z,20.60
2017-12-27T09:49:06.606Z,20.60
2017-12-27T09:50:11.585Z,20.60
2017-12-27T09:51:16.682Z,20.60
2017-12-27T09:52:21.619Z,20.60
2017-12-27T09:53:26.490Z,20.60
2017-12-27T09:54:31.361Z,20.60
2017-12-27T09:55:36.363Z,20.60
2017-12-27T09:56:41.374Z,20.60
2017-12-27T09:57:46.449Z,20.60
2017-12-27T09:58:51.506Z,20.60
2017-12-27T09:59:56.629Z,20.60
2017-12-27T10:01:01.699Z,20.60
2017-12-27T10:02:06.742Z,20.60
2017-12-27T10:03:11.647Z,20.60
2017-12-27T10:04:16.498Z,20.60
2017-12-27T10:05:21.442Z,20.60
2017-12-27T10:06:26.517Z,20.60
2017-12-27T10:07:31.409Z,20.70
2017-12-27T10:08:36.324Z,20.70
2017-12-27T10:09:41.386Z,20.70
2017-12-27T10:10:46.569Z,20.70
2017-12-27T10:11:51.717Z,20.70
2017-12-27T10:12:56.640Z,20.70
2017-12-27T10:14:06.053Z,20.70
2017-12-27T10:15:14.841Z,20.70
2017-12-27T10:16:20.356Z,20.70
2017-12-27T10:17:25.431Z,20.70
2017-12-27T10:18:30.991Z,20.70
2017-12-27T10:19:36.106Z,20.70
2017-12-27T10:20:40.985Z,20.70
2017-12-27T10:21:45.937Z,20.70
2017-12-27T10:22:50.966Z,20.70
2017-12-27T10:23:56.217Z,20.70
2017-12-27T10:25:01.198Z,20.70
2017-12-27T10:26:06.365Z,20.70
2017-12-27T10:27:11.329Z,20.70
2017-12-27T10:28:16.472Z,20.70
2017-12-27T10:29:21.662Z,20.70
2017-12-27T10:30:26.893Z,20.70
2017-12-27T10:31:31.941Z,20.70
2017-12-27T10:32:37.117Z,20.70
2017-12-27T10:33:42.217Z,20.70
2017-12-27T10:34:47.562Z,20.70
2017-12-27T10:35:52.961Z,20.60
2017-12-27T10:36:57.952Z,20.60
2017-12-27T10:38:03.156Z,20.60
2017-12-27T10:39:08.373Z,20.60
2017-12-27T10:40:13.469Z,20.60
2017-12-27T10:41:18.442Z,20.60
2017-12-27T10:42:23.355Z,20.60
2017-12-27T10:43:28.929Z,20.60
2017-12-27T10:44:34.199Z,20.60
2017-12-27T10:45:39.144Z,20.60
2017-12-27T10:46:44.140Z,20.60
2017-12-27T10:47:49.228Z,20.60
2017-12-27T10:48:54.238Z,20.60
2017-12-27T10:49:59.461Z,20.60
2017-12-27T10:51:04.750Z,20.60
2017-12-27T10:52:10.949Z,20.60
2017-12-27T10:53:16.101Z,20.60
2017-12-27T10:54:23.746Z,20.60
2017-12-27T10:55:29.325Z,20.60
2017-12-27T10:56:34.240Z,20.60
2017-12-27T10:57:39.811Z,20.60
2017-12-27T10:58:44.813Z,20.60
2017-12-27T10:59:49.973Z,20.60
2017-12-27T11:00:55.095Z,20.60
2017-12-27T11:01:59.911Z,20.60
2017-12-27T11:03:04.816Z,20.60
2017-12-27T11:04:10.475Z,20.60
2017-12-27T11:05:15.661Z,20.60
2017-12-27T11:06:20.787Z,20.60
2017-12-27T11:07:25.767Z,20.60
2017-12-27T11:08:30.909Z,20.60
2017-12-27T11:09:36.031Z,20.60
2017-12-27T11:10:41.376Z,20.60
2017-12-27T11:11:46.392Z,20.60
2017-12-27T11:12:51.518Z,20.60
2017-12-27T11:13:56.661Z,20.70
2017-12-27T11:15:01.754Z,20.70
2017-12-27T11:16:06.712Z,20.70
2017-12-27T11:17:11.743Z,20.70
2017-12-27T11:18:16.893Z,20.80
2017-12-27T11:19:21.849Z,20.70
2017-12-27T11:20:26.850Z,20.70
2017-12-27T11:21:32.091Z,20.70
2017-12-27T11:22:37.162Z,20.70
2017-12-27T11:23:42.243Z,20.80
2017-12-27T11:24:47.356Z,20.70
2017-12-27T11:25:53.312Z,20.70
2017-12-27T11:26:58.637Z,20.70
2017-12-27T11:28:03.674Z,20.70
2017-12-27T11:29:08.719Z,20.70
2017-12-27T11:30:13.673Z,20.70
2017-12-27T11:31:19.202Z,20.80
2017-12-27T11:32:24.326Z,20.70
2017-12-27T11:33:29.508Z,20.80
2017-12-27T11:34:34.539Z,20.80
2017-12-27T11:35:39.699Z,20.80
2017-12-27T11:36:44.950Z,20.80
2017-12-27T11:37:50.118Z,20.80
2017-12-27T11:38:55.204Z,20.80
2017-12-27T11:40:00.340Z,20.70
2017-12-27T11:41:05.560Z,20.80
2017-12-27T11:42:11.917Z,20.80
2017-12-27T11:43:17.031Z,20.80
2017-12-27T11:44:22.305Z,20.80
2017-12-27T11:45:27.345Z,20.80
2017-12-27T11:46:32.503Z,20.80
2017-12-27T11:47:37.698Z,20.80
2017-12-27T11:48:42.817Z,20.80
2017-12-27T11:49:47.857Z,20.80
2017-12-27T11:50:52.949Z,20.80
2017-12-27T11:51:58.250Z,20.80
2017-12-27T11:53:03.244Z,20.80
2017-12-27T11:54:08.480Z,20.80
2017-12-27T11:55:13.576Z,20.80
2017-12-27T11:56:18.711Z,20.80
2017-12-27T11:57:23.791Z,20.70
2017-12-27T11:58:28.750Z,20.60
2017-12-27T11:59:33.759Z,20.60
2017-12-27T12:00:38.652Z,20.50
2017-12-27T12:01:44.280Z,20.40
2017-12-27T12:02:49.500Z,20.30
2017-12-27T12:03:54.372Z,20.20
2017-12-27T12:04:59.539Z,20.10
2017-12-27T12:06:05.468Z,20.10
2017-12-27T12:07:10.573Z,20.00
2017-12-27T12:08:15.434Z,19.90
2017-12-27T12:09:20.592Z,19.90
2017-12-27T12:10:25.702Z,19.90
2017-12-27T12:11:30.663Z,19.80
2017-12-27T12:12:35.632Z,19.80
2017-12-27T12:13:40.671Z,19.90
2017-12-27T12:14:45.743Z,19.90
2017-12-27T12:15:50.573Z,20.00
2017-12-27T12:16:55.807Z,20.00
2017-12-27T12:18:02.228Z,20.00
2017-12-27T12:19:07.308Z,20.10
2017-12-27T12:20:12.396Z,20.10
2017-12-27T12:21:17.570Z,20.20
2017-12-27T12:22:22.609Z,20.20
2017-12-27T12:23:27.922Z,20.20
2017-12-27T12:24:33.040Z,20.20
2017-12-27T12:25:38.269Z,20.30
2017-12-27T12:26:56.227Z,20.30
2017-12-27T12:28:02.058Z,20.30
2017-12-27T12:29:07.149Z,20.30
2017-12-27T12:30:12.099Z,20.30
2017-12-27T12:31:17.056Z,20.30
2017-12-27T12:32:21.998Z,20.30
2017-12-27T12:33:26.989Z,20.30
2017-12-27T12:34:31.778Z,20.30
2017-12-27T12:35:36.786Z,20.30
2017-12-27T12:36:41.523Z,20.30
2017-12-27T12:37:46.432Z,20.30
2017-12-27T12:38:51.388Z,20.30
2017-12-27T12:39:56.379Z,20.30
2017-12-27T12:41:01.271Z,20.30
2017-12-27T12:42:06.075Z,20.30
2017-12-27T12:43:11.080Z,20.30
2017-12-27T12:44:15.938Z,20.30
2017-12-27T12:45:20.889Z,20.30
2017-12-27T12:46:25.857Z,20.40
2017-12-27T12:47:30.709Z,20.40
2017-12-27T12:48:35.626Z,20.40
2017-12-27T12:49:40.555Z,20.40
2017-12-27T12:50:45.547Z,20.40
2017-12-27T12:51:50.392Z,20.40
2017-12-27T12:52:55.374Z,20.40
2017-12-27T12:54:00.396Z,20.40
2017-12-27T12:55:05.217Z,20.40
2017-12-27T12:56:10.229Z,20.40
2017-12-27T12:57:14.967Z,20.40
2017-12-27T12:58:20.016Z,20.40
2017-12-27T12:59:24.735Z,20.40
2017-12-27T13:00:29.528Z,20.40
2017-12-27T13:01:34.318Z,20.40
2017-12-27T13:02:39.271Z,20.40
2017-12-27T13:03:44.556Z,20.40
2017-12-27T13:04:49.328Z,20.40
2017-12-27T13:05:54.163Z,20.40
2017-12-27T13:06:59.117Z,20.40
2017-12-27T13:08:04.136Z,20.40
2017-12-27T13:09:09.081Z,20.40
2017-12-27T13:10:13.918Z,20.40
2017-12-27T13:11:18.848Z,20.40
2017-12-27T13:12:23.668Z,20.40
2017-12-27T13:13:28.631Z,20.40
2017-12-27T13:14:33.590Z,20.40
2017-12-27T13:15:38.474Z,20.40
2017-12-27T13:16:44.544Z,20.40
2017-12-27T13:17:49.699Z,20.40
2017-12-27T13:18:54.654Z,20.40
2017-12-27T13:19:59.431Z,20.40
2017-12-27T13:21:04.557Z,20.40
2017-12-27T13:22:09.382Z,20.40
2017-12-27T13:23:14.491Z,20.40
2017-12-27T13:24:19.676Z,20.40
2017-12-27T13:25:24.502Z,20.40
2017-12-27T13:26:29.262Z,20.40
2017-12-27T13:27:33.973Z,20.40
2017-12-27T13:28:39.005Z,20.40
2017-12-27T13:29:43.958Z,20.40
2017-12-27T13:30:48.779Z,20.40
2017-12-27T13:31:53.596Z,20.40
2017-12-27T13:32:58.521Z,20.40
2017-12-27T13:34:03.508Z,20.40
2017-12-27T13:35:08.470Z,20.40
2017-12-27T13:36:13.527Z,20.40
2017-12-27T13:37:18.312Z,20.40
2017-12-27T13:38:23.175Z,20.40
2017-12-27T13:39:28.226Z,20.40
2017-12-27T13:40:33.068Z,20.40
2017-12-27T13:41:37.907Z,20.40
2017-12-27T13:42:42.855Z,20.40
2017-12-27T13:43:47.861Z,20.40
2017-12-27T13:44:52.731Z,20.40
2017-12-27T13:45:57.564Z,20.40
2017-12-27T13:47:02.470Z,20.40
2017-12-27T13:48:07.487Z,20.40
2017-12-27T13:49:12.294Z,20.40
2017-12-27T13:50:17.369Z,20.40
2017-12-27T13:51:22.554Z,20.30
2017-12-27T13:52:27.578Z,20.40
2017-12-27T13:53:32.410Z,20.30
2017-12-27T13:54:37.309Z,20.40
2017-12-27T13:55:42.726Z,20.40
2017-12-27T13:56:47.710Z,20.40
2017-12-27T13:57:52.717Z,20.40